Time;durP1;ratioP1;P1;durP2;ratioP2;P2;SDS_P1;SDS_P2;PMS_P1;PMS_P2;Temp;Humidity;BMP_temperature;BMP_pressure;BME280_temperature;BME280_humidity;BME280_pressure;Samples;Min_cycle;Max_cycle;Signal;HPM_P1;HPM_P2
2021/12/27 00:01:50;;;;;;;5.13;4.80;;;;;;;5.68;98.70;94420.41;4411149;32;20252;-64
2021/12/27 00:04:15;;;;;;;5.87;5.43;;;;;;;5.65;99.20;94424.38;4418338;32;20180;-64
2021/12/27 00:06:40;;;;;;;5.37;5.03;;;;;;;5.64;99.15;94419.41;4420165;32;20285;-64
2021/12/27 00:09:06;;;;;;;6.03;5.63;;;;;;;5.73;98.77;94415.06;4407991;32;20184;-63
2021/12/27 00:11:31;;;;;;;5.60;5.20;;;;;;;5.76;98.79;94417.94;4408785;32;20179;-63
2021/12/27 00:13:56;;;;;;;6.17;5.77;;;;;;;5.79;98.36;94412.09;4417702;32;20195;-63
2021/12/27 00:16:22;;;;;;;5.57;5.17;;;;;;;5.80;98.58;94413.66;4407954;32;20199;-64
2021/12/27 00:18:47;;;;;;;5.60;5.20;;;;;;;5.76;98.67;94417.16;4414939;32;20184;-64
2021/12/27 00:21:12;;;;;;;5.73;5.33;;;;;;;5.80;98.57;94421.56;4409561;32;20294;-64
2021/12/27 00:23:38;;;;;;;5.70;5.30;;;;;;;5.59;99.22;94422.13;4407787;32;20252;-63
2021/12/27 00:26:06;;;;;;;7.27;5.07;;;;;;;5.80;99.15;94423.41;4420724;32;20188;-64
2021/12/27 00:28:33;;;;;;;5.20;4.90;;;;;;;5.81;98.75;94423.13;4412060;32;20218;-64
2021/12/27 00:31:00;;;;;;;4.77;4.47;;;;;;;5.88;98.65;94420.09;4420192;32;20385;-64
2021/12/27 00:33:26;;;;;;;5.30;4.80;;;;;;;5.79;98.45;94425.25;4410699;32;20339;-64
2021/12/27 00:35:52;;;;;;;5.27;4.97;;;;;;;5.70;99.37;94420.91;4410859;32;20314;-64
2021/12/27 00:38:18;;;;;;;4.83;4.53;;;;;;;5.85;99.02;94420.69;4407200;32;20280;-64
2021/12/27 00:40:43;;;;;;;4.63;4.33;;;;;;;5.93;98.50;94414.81;4420963;32;20184;-64
2021/12/27 00:43:08;;;;;;;4.60;4.30;;;;;;;6.04;98.14;94423.31;4411691;32;20187;-65
2021/12/27 00:45:34;;;;;;;4.37;4.07;;;;;;;6.07;97.75;94413.00;4414324;32;20204;-64
2021/12/27 00:47:59;;;;;;;4.23;3.93;;;;;;;6.01;97.62;94422.06;4420718;32;20204;-64
2021/12/27 00:50:26;;;;;;;4.33;4.03;;;;;;;6.06;97.82;94406.19;4417476;32;20196;-64
2021/12/27 00:52:52;;;;;;;4.10;3.90;;;;;;;6.20;97.27;94404.38;4415564;32;20214;-64
2021/12/27 00:55:18;;;;;;;4.30;4.10;;;;;;;6.27;96.72;94408.47;4418848;32;20279;-64
2021/12/27 00:57:45;;;;;;;4.00;3.80;;;;;;;6.19;96.52;94402.03;4415657;32;20218;-64
2021/12/27 01:00:14;;;;;;;3.27;3.07;;;;;;;6.30;96.22;94397.38;4413759;32;20274;-64
2021/12/27 01:02:39;;;;;;;3.40;3.20;;;;;;;6.28;96.29;94399.50;4423472;32;20302;-64
2021/12/27 01:05:06;;;;;;;3.87;3.67;;;;;;;6.43;95.54;94404.56;4415611;32;20287;-64
2021/12/27 01:07:31;;;;;;;4.27;3.97;;;;;;;6.34;95.60;94403.62;4413905;32;20192;-64
2021/12/27 01:10:19;;;;;;;4.57;4.27;;;;;;;6.27;96.05;94404.00;4410781;32;20318;-64
2021/12/27 01:12:50;;;;;;;4.20;4.00;;;;;;;6.26;96.34;94404.28;4407110;32;20219;-63
2021/12/27 01:17:45;;;;;;;3.80;3.60;;;;;;;6.36;96.00;94393.59;4415504;32;20279;-64
2021/12/27 01:20:15;;;;;;;3.53;3.33;;;;;;;6.30;96.10;94400.00;4406993;32;20283;-64
2021/12/27 01:22:41;;;;;;;3.27;3.00;;;;;;;6.32;95.74;94400.50;4420410;32;20301;-64
2021/12/27 01:25:08;;;;;;;3.60;3.40;;;;;;;6.37;95.71;94410.97;4423911;32;20275;-64
2021/12/27 01:27:34;;;;;;;3.93;3.73;;;;;;;6.44;95.06;94409.50;4414996;32;20203;-64
2021/12/27 01:29:59;;;;;;;3.43;3.23;;;;;;;6.41;95.25;94411.97;4411497;32;20369;-64
2021/12/27 01:32:29;;;;;;;3.30;3.10;;;;;;;6.33;95.33;94416.03;4409321;32;20279;-64
2021/12/27 01:34:55;;;;;;;3.30;3.10;;;;;;;6.42;95.42;94405.63;4417835;32;20296;-64
2021/12/27 01:37:21;;;;;;;3.70;3.50;;;;;;;6.32;95.54;94400.50;4407937;32;20298;-64
2021/12/27 01:39:46;;;;;;;2.93;2.83;;;;;;;6.35;95.45;94402.56;4409243;32;20284;-64
2021/12/27 01:42:12;;;;;;;3.50;3.30;;;;;;;6.31;95.43;94409.47;4417745;32;20188;-64
2021/12/27 01:44:39;;;;;;;3.47;3.27;;;;;;;6.34;95.21;94404.41;4415156;32;20187;-64
2021/12/27 01:47:06;;;;;;;3.37;3.17;;;;;;;6.00;96.24;94399.44;4417384;32;20208;-64
2021/12/27 01:49:32;;;;;;;3.87;3.63;;;;;;;5.83;97.36;94394.66;4403903;32;20354;-64
2021/12/27 01:51:57;;;;;;;3.90;3.37;;;;;;;5.82;97.84;94410.72;4410966;32;20335;-64
2021/12/27 01:54:22;;;;;;;3.80;3.50;;;;;;;5.70;98.26;94402.47;4416111;32;20259;-64
2021/12/27 01:56:53;;;;;;;3.67;3.47;;;;;;;5.90;97.75;94402.22;4420515;32;20198;-64
2021/12/27 01:59:19;;;;;;;3.33;3.13;;;;;;;5.82;97.92;94394.94;4419973;32;20259;-64
2021/12/27 02:01:44;;;;;;;4.07;3.77;;;;;;;5.85;97.69;94386.47;4405876;32;20392;-64
2021/12/27 02:04:10;;;;;;;3.50;3.30;;;;;;;5.85;97.65;94394.34;4416289;32;20210;-65
2021/12/27 02:06:35;;;;;;;3.43;3.23;;;;;;;5.91;97.64;94388.00;4421884;32;20200;-63
2021/12/27 02:09:00;;;;;;;3.40;3.20;;;;;;;5.89;97.47;94391.97;4412588;32;20203;-63
2021/12/27 02:11:27;;;;;;;3.93;3.67;;;;;;;5.89;97.84;94398.03;4410036;32;20200;-64
2021/12/27 02:13:52;;;;;;;4.07;3.53;;;;;;;5.98;97.24;94396.31;4409828;32;20180;-63
2021/12/27 02:16:20;;;;;;;3.83;3.63;;;;;;;5.99;97.36;94391.84;4407423;32;20299;-64
2021/12/27 02:18:48;;;;;;;3.43;3.23;;;;;;;6.05;97.16;94394.06;4406925;32;20214;-64
2021/12/27 02:21:14;;;;;;;3.87;3.63;;;;;;;6.14;96.46;94384.47;4411712;32;20291;-64
2021/12/27 02:23:41;;;;;;;3.77;3.47;;;;;;;6.19;96.16;94384.41;4409515;32;20279;-64
2021/12/27 02:26:08;;;;;;;3.80;3.50;;;;;;;6.15;96.65;94386.03;4420705;32;20306;-64
2021/12/27 02:28:33;;;;;;;3.90;3.70;;;;;;;6.12;96.56;94381.34;4407197;32;20287;-63
2021/12/27 02:30:58;;;;;;;3.57;3.37;;;;;;;6.16;96.74;94381.56;4410417;32;20401;-63
2021/12/27 02:33:24;;;;;;;3.67;3.47;;;;;;;6.04;97.07;94379.34;4416576;32;20298;-64
2021/12/27 02:35:53;;;;;;;3.60;3.40;;;;;;;5.87;97.33;94379.84;4405890;32;20201;-64
2021/12/27 02:38:29;;;;;;;4.03;3.83;;;;;;;5.91;97.82;94385.34;4404359;32;20229;-64
2021/12/27 02:40:55;;;;;;;3.83;3.63;;;;;;;5.81;98.20;94381.03;4408049;32;20338;-64
2021/12/27 02:43:24;;;;;;;3.77;3.57;;;;;;;5.94;98.17;94384.78;4412639;32;20275;-64
2021/12/27 02:45:56;;;;;;;3.83;3.63;;;;;;;5.87;98.39;94377.22;4405965;32;20310;-64
2021/12/27 02:48:24;;;;;;;3.93;3.70;;;;;;;6.04;98.04;94373.31;4410625;32;20303;-64
2021/12/27 02:50:51;;;;;;;3.60;3.40;;;;;;;6.10;97.41;94372.94;4418222;32;20422;-64
2021/12/27 02:53:18;;;;;;;3.20;3.00;;;;;;;6.03;97.42;94367.25;4421252;32;20299;-64
2021/12/27 02:55:44;;;;;;;3.77;3.50;;;;;;;5.91;97.85;94374.84;4407914;32;20331;-64
2021/12/27 02:58:10;;;;;;;3.70;3.40;;;;;;;5.85;98.42;94376.72;4404158;32;20280;-64
2021/12/27 03:00:39;;;;;;;3.63;3.33;;;;;;;5.87;98.51;94374.59;4407470;32;20302;-63
2021/12/27 03:03:05;;;;;;;3.60;3.40;;;;;;;5.79;98.86;94371.84;4404480;32;20212;-64
2021/12/27 03:05:31;;;;;;;3.60;3.40;;;;;;;5.92;98.56;94376.41;4410391;32;20324;-64
2021/12/27 03:07:57;;;;;;;3.37;3.10;;;;;;;6.09;97.75;94376.66;4412449;32;20236;-64
2021/12/27 03:10:29;;;;;;;2.80;2.63;;;;;;;6.11;97.12;94369.25;4414062;32;20299;-64
2021/12/27 03:12:57;;;;;;;3.20;3.00;;;;;;;6.08;97.33;94364.53;4413900;32;20417;-64
2021/12/27 03:15:23;;;;;;;3.33;3.13;;;;;;;6.04;97.40;94376.72;4411399;32;20303;-64
2021/12/27 03:17:50;;;;;;;3.47;3.27;;;;;;;6.05;97.10;94374.88;4411112;32;20297;-64
2021/12/27 03:20:18;;;;;;;3.10;2.90;;;;;;;6.01;97.75;94374.69;4410165;32;20299;-64
2021/12/27 03:22:43;;;;;;;3.00;2.80;;;;;;;6.18;96.94;94369.66;4422529;32;20287;-64
2021/12/27 03:25:14;;;;;;;2.97;2.77;;;;;;;6.10;97.19;94361.63;4416738;32;20346;-64
2021/12/27 03:27:40;;;;;;;3.17;2.97;;;;;;;6.11;97.24;94363.97;4421618;32;20247;-64
2021/12/27 03:30:08;;;;;;;3.70;3.00;;;;;;;6.16;97.11;94361.28;4419740;32;20276;-64
2021/12/27 03:32:35;;;;;;;2.53;2.43;;;;;;;6.19;97.28;94360.69;4411896;32;20203;-64
2021/12/27 03:35:08;;;;;;;2.70;2.50;;;;;;;6.20;97.12;94357.00;4417355;32;20284;-63
2021/12/27 03:37:34;;;;;;;2.60;2.50;;;;;;;6.19;97.31;94358.06;4422315;32;20279;-63
2021/12/27 03:40:00;;;;;;;2.67;2.43;;;;;;;6.25;97.21;94361.37;4418998;32;20287;-63
2021/12/27 03:42:25;;;;;;;2.83;2.60;;;;;;;6.19;97.20;94355.44;4419271;32;20302;-63
2021/12/27 03:44:50;;;;;;;3.17;2.87;;;;;;;6.29;96.39;94357.09;4421858;32;20200;-64
2021/12/27 03:47:17;;;;;;;2.60;2.50;;;;;;;6.17;97.06;94352.31;4408162;32;20192;-63
2021/12/27 03:49:43;;;;;;;7.57;2.40;;;;;;;6.12;97.07;94355.00;4406347;32;20259;-64
2021/12/27 03:52:08;;;;;;;2.73;2.57;;;;;;;6.17;97.60;94354.16;4415814;32;20279;-63
2021/12/27 03:54:33;;;;;;;2.20;2.10;;;;;;;6.08;97.71;94353.25;4423261;32;20176;-64
2021/12/27 03:56:58;;;;;;;2.33;2.23;;;;;;;6.03;98.43;94356.72;4415804;32;20286;-63
2021/12/27 04:02:13;;;;;;;2.53;2.40;;;;;;;5.93;98.48;94359.53;4398997;32;20222;-64
2021/12/27 04:04:40;;;;;;;2.20;2.10;;;;;;;5.96;98.80;94351.06;4423513;32;20282;-64
2021/12/27 04:07:08;;;;;;;2.03;1.93;;;;;;;5.95;99.07;94346.88;4423298;32;20286;-64
2021/12/27 04:09:35;;;;;;;1.93;1.83;;;;;;;5.97;99.20;94351.84;4413975;32;20332;-63
2021/12/27 04:12:00;;;;;;;2.27;2.17;;;;;;;5.85;99.43;94354.88;4415795;32;20313;-63
2021/12/27 04:14:26;;;;;;;2.00;1.90;;;;;;;5.99;99.39;94344.44;4421702;32;20363;-63
2021/12/27 04:16:52;;;;;;;2.50;2.40;;;;;;;6.14;98.76;94347.59;4416231;32;20249;-63
2021/12/27 04:19:18;;;;;;;2.00;1.90;;;;;;;6.11;98.77;94347.41;4421476;32;20195;-63
2021/12/27 04:21:43;;;;;;;1.90;1.80;;;;;;;6.04;98.67;94357.50;4414676;32;20294;-64
2021/12/27 04:24:08;;;;;;;2.40;2.20;;;;;;;5.98;98.74;94348.94;4413985;32;20186;-65
2021/12/27 04:26:34;;;;;;;2.27;2.17;;;;;;;6.05;98.86;94345.91;4413432;32;20188;-64
2021/12/27 04:28:59;;;;;;;1.90;1.80;;;;;;;5.95;99.19;94349.50;4409024;32;20175;-64
2021/12/27 04:31:24;;;;;;;2.17;1.97;;;;;;;6.06;98.91;94347.47;4417890;32;20292;-64
2021/12/27 04:33:50;;;;;;;2.20;2.10;;;;;;;6.10;98.74;94349.25;4418882;32;20191;-64
2021/12/27 04:36:16;;;;;;;1.83;1.70;;;;;;;6.13;98.50;94353.94;4418980;32;20203;-64
2021/12/27 04:38:44;;;;;;;1.93;1.83;;;;;;;6.10;98.43;94349.25;4421424;32;20201;-64
2021/12/27 04:41:12;;;;;;;2.00;1.90;;;;;;;6.07;98.65;94352.44;4413450;32;20234;-64
2021/12/27 04:43:38;;;;;;;1.73;1.63;;;;;;;6.07;98.58;94354.31;4422890;32;20295;-63
2021/12/27 04:46:07;;;;;;;2.23;1.73;;;;;;;6.08;98.79;94358.50;4418326;32;20294;-63
2021/12/27 04:48:32;;;;;;;1.30;1.30;;;;;;;6.15;98.74;94348.38;4407248;32;20233;-64
2021/12/27 04:50:58;;;;;;;1.43;1.43;;;;;;;6.34;97.67;94356.22;4410814;32;20282;-63
2021/12/27 04:53:24;;;;;;;1.60;1.50;;;;;;;6.34;96.76;94351.75;4408166;32;20279;-63
2021/12/27 04:55:50;;;;;;;1.10;1.10;;;;;;;6.27;96.91;94353.19;4420238;32;20204;-64
2021/12/27 04:58:17;;;;;;;1.43;1.33;;;;;;;6.37;96.97;94353.03;4420946;32;20246;-64
2021/12/27 05:00:43;;;;;;;1.33;1.23;;;;;;;6.22;97.30;94345.37;4420394;32;20176;-64
2021/12/27 05:03:09;;;;;;;1.50;1.40;;;;;;;6.33;97.14;94346.75;4408852;32;20279;-64
2021/12/27 05:05:36;;;;;;;1.73;1.47;;;;;;;6.27;96.71;94356.59;4408771;32;20293;-63
2021/12/27 05:08:03;;;;;;;1.50;1.40;;;;;;;6.13;97.35;94350.53;4415474;32;20210;-64
2021/12/27 05:10:30;;;;;;;1.10;1.00;;;;;;;6.27;97.03;94348.69;4420593;32;20354;-64
2021/12/27 05:12:56;;;;;;;1.50;1.40;;;;;;;6.19;97.15;94350.16;4406955;32;20433;-64
2021/12/27 05:15:22;;;;;;;2.93;1.30;;;;;;;6.08;97.89;94348.75;4405079;32;20268;-64
2021/12/27 05:17:47;;;;;;;1.10;1.10;;;;;;;6.07;98.25;94336.66;4419354;32;20339;-64
2021/12/27 05:20:13;;;;;;;1.70;1.60;;;;;;;6.15;97.98;94343.91;4406786;32;20207;-66
2021/12/27 05:22:39;;;;;;;1.53;1.00;;;;;;;6.24;97.62;94337.97;4412986;32;20199;-64
2021/12/27 05:25:06;;;;;;;2.30;1.60;;;;;;;6.23;97.64;94347.75;4407222;32;20263;-63
2021/12/27 05:27:32;;;;;;;1.33;1.23;;;;;;;6.24;97.66;94351.13;4417613;32;20275;-63
2021/12/27 05:29:57;;;;;;;1.00;1.00;;;;;;;6.24;97.35;94351.13;4420307;32;20270;-63
2021/12/27 05:32:22;;;;;;;1.77;1.23;;;;;;;6.09;97.67;94344.28;4415705;32;20218;-63
2021/12/27 05:34:48;;;;;;;1.57;1.17;;;;;;;6.27;97.33;94345.28;4405362;32;20224;-63
2021/12/27 05:37:13;;;;;;;1.63;1.40;;;;;;;6.26;97.07;94338.44;4406583;32;20188;-63
2021/12/27 05:39:39;;;;;;;1.47;1.37;;;;;;;6.31;96.75;94335.72;4409632;32;20191;-65
2021/12/27 05:42:06;;;;;;;1.67;1.53;;;;;;;6.35;96.12;94342.00;4422110;32;20188;-64
2021/12/27 05:44:32;;;;;;;1.70;1.60;;;;;;;6.17;96.54;94343.63;4415134;32;20235;-64
2021/12/27 05:46:57;;;;;;;1.93;1.10;;;;;;;6.22;96.80;94338.28;4406096;32;20328;-64
2021/12/27 05:49:23;;;;;;;1.40;1.30;;;;;;;6.27;96.44;94332.91;4419005;32;20202;-64
2021/12/27 05:51:50;;;;;;;1.00;1.00;;;;;;;6.11;96.95;94335.00;4419843;32;20184;-64
2021/12/27 05:54:15;;;;;;;1.33;1.27;;;;;;;6.11;97.17;94342.12;4410983;32;20405;-64
2021/12/27 05:56:43;;;;;;;1.40;1.30;;;;;;;6.14;96.95;94333.66;4416767;32;20274;-64
2021/12/27 05:59:09;;;;;;;1.17;1.17;;;;;;;6.22;96.77;94342.75;4419653;32;20195;-65
2021/12/27 06:01:34;;;;;;;1.30;1.10;;;;;;;6.07;97.18;94330.63;4418524;32;20330;-63
2021/12/27 06:04:00;;;;;;;1.50;1.37;;;;;;;5.84;97.77;94333.06;4405815;32;20188;-63
2021/12/27 06:06:26;;;;;;;1.37;1.03;;;;;;;5.86;97.88;94330.91;4409135;32;20242;-63
2021/12/27 06:08:52;;;;;;;2.00;1.80;;;;;;;5.84;98.35;94327.00;4406968;32;20204;-64
2021/12/27 06:11:17;;;;;;;2.07;1.40;;;;;;;5.84;98.33;94329.63;4406218;32;20317;-63
2021/12/27 06:13:43;;;;;;;1.30;1.20;;;;;;;5.94;98.17;94324.25;4412277;32;20175;-63
2021/12/27 06:16:09;;;;;;;1.30;1.20;;;;;;;6.03;97.51;94327.78;4417591;32;20222;-65
2021/12/27 06:18:35;;;;;;;3.93;1.23;;;;;;;6.04;97.18;94329.34;4415631;32;20208;-63
2021/12/27 06:21:00;;;;;;;1.40;1.30;;;;;;;6.22;96.43;94322.47;4417969;32;20287;-63
2021/12/27 06:23:25;;;;;;;1.37;1.27;;;;;;;6.18;95.72;94327.53;4418363;32;20188;-63
2021/12/27 06:25:51;;;;;;;1.90;1.73;;;;;;;6.22;95.51;94324.31;4418847;32;20192;-63
2021/12/27 06:28:17;;;;;;;2.57;1.30;;;;;;;6.02;96.20;94317.56;4415994;32;20216;-64
2021/12/27 06:30:42;;;;;;;1.57;1.47;;;;;;;6.05;96.16;94327.47;4404979;32;20203;-64
2021/12/27 06:33:09;;;;;;;1.60;1.47;;;;;;;6.16;95.74;94319.12;4406317;32;20336;-63
2021/12/27 06:35:34;;;;;;;1.83;1.50;;;;;;;6.14;95.54;94320.50;4406555;32;20200;-63
2021/12/27 06:37:59;;;;;;;1.50;1.40;;;;;;;6.23;95.19;94324.03;4411378;32;20275;-63
2021/12/27 06:40:25;;;;;;;1.60;1.50;;;;;;;6.19;94.93;94323.84;4405810;32;20231;-64
2021/12/27 06:42:50;;;;;;;3.23;1.47;;;;;;;6.07;95.29;94318.22;4409851;32;20184;-63
2021/12/27 06:45:16;;;;;;;1.77;1.70;;;;;;;6.16;95.30;94319.12;4407937;32;20181;-64
2021/12/27 06:47:41;;;;;;;1.97;1.60;;;;;;;6.15;95.04;94327.31;4406185;32;20283;-64
2021/12/27 06:50:08;;;;;;;1.90;1.53;;;;;;;6.08;95.49;94314.53;4408821;32;20189;-63
2021/12/27 06:52:34;;;;;;;1.90;1.80;;;;;;;6.09;95.79;94312.69;4414004;32;20202;-63
2021/12/27 06:54:59;;;;;;;4.00;2.17;;;;;;;6.10;95.60;94307.13;4409625;32;20488;-63
2021/12/27 06:57:24;;;;;;;1.70;1.60;;;;;;;6.24;94.90;94306.34;4420026;32;20188;-64
2021/12/27 06:59:50;;;;;;;2.20;2.00;;;;;;;6.17;95.12;94312.03;4421454;32;20199;-64
2021/12/27 07:02:15;;;;;;;1.77;1.67;;;;;;;6.20;94.96;94316.72;4408392;32;20239;-64
2021/12/27 07:04:40;;;;;;;2.00;1.50;;;;;;;6.16;95.20;94318.34;4413111;32;20180;-64
2021/12/27 07:07:06;;;;;;;1.83;1.10;;;;;;;6.26;94.79;94312.91;4410041;32;20233;-64
2021/12/27 07:09:31;;;;;;;1.60;1.50;;;;;;;6.22;94.44;94322.47;4413832;32;20192;-64
2021/12/27 07:11:56;;;;;;;1.30;1.30;;;;;;;6.27;94.32;94316.31;4407068;32;20248;-64
2021/12/27 07:14:22;;;;;;;1.60;1.50;;;;;;;6.06;95.01;94321.94;4415093;32;20224;-64
2021/12/27 07:16:47;;;;;;;1.50;1.40;;;;;;;6.10;95.12;94322.91;4411828;32;20211;-64
2021/12/27 07:19:13;;;;;;;1.23;1.20;;;;;;;6.10;95.37;94325.56;4420366;32;20187;-64
2021/12/27 07:21:38;;;;;;;1.33;1.23;;;;;;;6.20;95.20;94329.87;4410471;32;20192;-63
2021/12/27 07:24:04;;;;;;;1.40;1.40;;;;;;;6.13;95.12;94324.97;4411588;32;20194;-64
2021/12/27 07:26:30;;;;;;;1.63;1.33;;;;;;;6.10;95.55;94325.56;4409696;32;20274;-64
2021/12/27 07:28:55;;;;;;;3.40;1.30;;;;;;;6.07;95.88;94314.81;4421075;32;20322;-64
2021/12/27 07:31:20;;;;;;;1.30;1.20;;;;;;;6.11;95.87;94310.53;4420497;32;20194;-64
2021/12/27 07:33:46;;;;;;;3.27;1.30;;;;;;;6.18;95.85;94314.37;4409960;32;20192;-64
2021/12/27 07:36:12;;;;;;;1.53;1.13;;;;;;;6.15;95.88;94317.56;4411310;32;20180;-64
2021/12/27 07:38:41;;;;;;;1.43;1.33;;;;;;;6.22;95.70;94305.91;4418604;32;20201;-64
2021/12/27 07:41:07;;;;;;;1.03;1.03;;;;;;;6.27;95.46;94305.78;4418534;32;20280;-63
2021/12/27 07:43:32;;;;;;;2.20;1.37;;;;;;;6.31;95.26;94312.81;4413003;32;20293;-64
2021/12/27 07:45:57;;;;;;;2.13;1.47;;;;;;;6.42;94.98;94306.31;4419403;32;20187;-64
2021/12/27 07:48:22;;;;;;;2.43;1.70;;;;;;;6.31;95.12;94306.75;4414673;32;20248;-64
2021/12/27 07:50:48;;;;;;;1.30;1.20;;;;;;;6.30;95.14;94307.84;4412608;32;20210;-64
2021/12/27 07:53:14;;;;;;;1.67;1.57;;;;;;;6.44;94.71;94313.91;4421523;32;20187;-64
2021/12/27 07:55:39;;;;;;;1.87;1.40;;;;;;;6.29;95.09;94312.31;4419541;32;20187;-65
2021/12/27 07:58:05;;;;;;;2.00;1.80;;;;;;;6.30;95.23;94311.25;4414999;32;20211;-64
2021/12/27 08:00:31;;;;;;;4.17;2.33;;;;;;;6.28;95.45;94309.97;4417817;32;20295;-64
2021/12/27 08:02:56;;;;;;;1.90;1.80;;;;;;;6.37;95.25;94308.25;4415200;32;20187;-64
2021/12/27 08:05:22;;;;;;;2.53;1.77;;;;;;;6.24;95.15;94303.72;4409253;32;20206;-64
2021/12/27 08:07:47;;;;;;;2.10;1.90;;;;;;;6.24;95.51;94295.81;4418664;32;20214;-63
2021/12/27 08:10:14;;;;;;;2.13;2.03;;;;;;;6.30;95.61;94298.09;4421228;32;20188;-64
2021/12/27 08:12:41;;;;;;;2.80;2.60;;;;;;;6.28;95.62;94294.97;4412069;32;20192;-64
2021/12/27 08:15:08;;;;;;;2.00;1.90;;;;;;;6.35;95.02;94299.84;4414746;32;20331;-64
2021/12/27 08:17:34;;;;;;;6.30;2.50;;;;;;;6.43;94.71;94289.44;4419391;32;20270;-64
2021/12/27 08:19:59;;;;;;;3.17;2.80;;;;;;;6.29;94.98;94282.56;4421010;32;20395;-64
2021/12/27 08:22:25;;;;;;;2.97;2.47;;;;;;;6.20;95.34;94283.25;4422026;32;20176;-64
2021/12/27 08:24:51;;;;;;;3.10;2.90;;;;;;;6.26;95.41;94280.53;4423833;32;20198;-64
2021/12/27 08:27:20;;;;;;;6.17;2.63;;;;;;;6.39;94.53;94290.31;4423709;32;20191;-65
2021/12/27 08:29:46;;;;;;;2.90;2.70;;;;;;;6.43;94.33;94294.69;4408806;32;20291;-64
2021/12/27 08:32:12;;;;;;;3.33;3.03;;;;;;;6.24;95.11;94287.94;4415570;32;20271;-64
2021/12/27 08:34:37;;;;;;;3.57;3.27;;;;;;;6.39;94.41;94290.31;4411825;32;20394;-64
2021/12/27 08:37:03;;;;;;;3.40;3.20;;;;;;;6.46;94.55;94291.44;4420489;32;20207;-64
2021/12/27 08:39:28;;;;;;;3.17;2.93;;;;;;;6.40;94.39;94287.38;4412166;32;20198;-64
2021/12/27 08:41:54;;;;;;;4.00;2.70;;;;;;;6.36;94.36;94285.63;4411073;32;20184;-64
2021/12/27 08:44:20;;;;;;;3.10;2.80;;;;;;;6.35;94.39;94292.72;4421492;32;20241;-64
2021/12/27 08:46:45;;;;;;;3.90;3.43;;;;;;;6.33;94.73;94281.69;4417973;32;20239;-64
2021/12/27 08:49:11;;;;;;;5.10;3.70;;;;;;;6.48;94.40;94288.53;4420308;32;20207;-65
2021/12/27 08:51:36;;;;;;;3.53;2.87;;;;;;;6.60;93.76;94286.19;4410212;32;20192;-64
2021/12/27 08:54:03;;;;;;;3.70;2.43;;;;;;;6.48;93.95;94278.00;4405612;32;20210;-64
2021/12/27 08:56:29;;;;;;;3.10;2.90;;;;;;;6.46;94.03;94273.00;4408831;32;21603;-64
2021/12/27 08:58:54;;;;;;;3.03;2.77;;;;;;;6.49;93.94;94274.28;4410972;32;20293;-64
2021/12/27 09:01:20;;;;;;;4.00;2.83;;;;;;;6.49;93.81;94275.06;4420219;32;20199;-64
2021/12/27 09:03:46;;;;;;;4.43;3.10;;;;;;;6.53;93.68;94273.41;4409421;32;20223;-64
2021/12/27 09:06:11;;;;;;;4.93;2.77;;;;;;;6.53;93.61;94275.28;4414164;32;20188;-64
2021/12/27 09:08:37;;;;;;;3.53;2.50;;;;;;;6.44;93.88;94277.78;4414100;32;20240;-64
2021/12/27 09:11:08;;;;;;;3.50;2.90;;;;;;;6.60;93.53;94270.41;4420253;32;20184;-64
2021/12/27 09:13:37;;;;;;;4.00;3.43;;;;;;;6.63;93.62;94271.66;4413155;32;20207;-64
2021/12/27 09:16:08;;;;;;;4.10;3.30;;;;;;;6.64;93.47;94271.38;4414786;32;20275;-64
2021/12/27 09:18:35;;;;;;;6.37;3.20;;;;;;;6.63;93.23;94269.03;4408327;32;20363;-64
2021/12/27 09:21:00;;;;;;;3.23;3.03;;;;;;;6.58;93.93;94275.19;4408193;32;20368;-64
2021/12/27 09:23:26;;;;;;;2.87;2.67;;;;;;;6.59;94.17;94268.06;4418127;32;20344;-64
2021/12/27 09:25:51;;;;;;;3.13;2.87;;;;;;;6.68;94.19;94266.28;4408786;32;20224;-64
2021/12/27 09:28:17;;;;;;;3.43;3.20;;;;;;;6.72;94.08;94262.75;4413508;32;20184;-64
2021/12/27 09:30:43;;;;;;;3.73;3.43;;;;;;;6.58;94.72;94255.94;4415921;32;20225;-64
2021/12/27 09:33:08;;;;;;;3.90;3.57;;;;;;;6.61;95.00;94256.16;4421464;32;20195;-64
2021/12/27 09:35:35;;;;;;;3.30;3.00;;;;;;;6.79;94.40;94247.34;4414164;32;20188;-64
2021/12/27 09:38:01;;;;;;;3.57;3.27;;;;;;;6.69;94.82;94242.25;4408306;32;20222;-64
2021/12/27 09:40:27;;;;;;;2.43;2.33;;;;;;;6.66;94.93;94242.84;4404929;32;20284;-64
2021/12/27 09:42:53;;;;;;;4.47;2.73;;;;;;;6.72;95.08;94244.31;4414809;32;20279;-64
2021/12/27 09:45:20;;;;;;;2.87;2.67;;;;;;;6.77;94.77;94244.22;4407077;32;20188;-64
2021/12/27 09:47:47;;;;;;;2.70;2.50;;;;;;;6.80;94.61;94250.75;4407596;32;20283;-64
2021/12/27 09:50:18;;;;;;;6.37;4.00;;;;;;;6.85;94.61;94248.81;4407264;32;20272;-64
2021/12/27 09:52:44;;;;;;;2.73;2.53;;;;;;;6.89;94.73;94241.84;4407745;32;20395;-65
2021/12/27 09:55:11;;;;;;;2.70;2.43;;;;;;;6.81;95.03;94239.91;4410426;32;20276;-65
2021/12/27 09:57:36;;;;;;;2.60;2.40;;;;;;;6.73;95.59;94239.81;4415193;32;20306;-64
2021/12/27 10:00:04;;;;;;;3.27;3.07;;;;;;;6.78;95.67;94250.28;4412015;32;20271;-64
2021/12/27 10:02:29;;;;;;;3.67;2.90;;;;;;;6.84;95.79;94244.59;4415307;32;20426;-64
2021/12/27 10:04:54;;;;;;;3.73;2.67;;;;;;;6.92;95.64;94234.41;4415517;32;20308;-64
2021/12/27 10:07:22;;;;;;;3.47;2.20;;;;;;;6.88;95.87;94235.00;4404337;32;20229;-64
2021/12/27 10:09:55;;;;;;;2.17;2.07;;;;;;;6.82;96.15;94225.66;4406520;32;20196;-64
2021/12/27 10:12:24;;;;;;;1.90;1.80;;;;;;;6.86;96.16;94226.59;4406053;32;20288;-64
2021/12/27 10:14:57;;;;;;;2.00;1.90;;;;;;;6.90;95.70;94219.69;4413046;32;20290;-64
2021/12/27 10:17:23;;;;;;;2.37;2.20;;;;;;;6.85;96.04;94222.44;4406684;32;20345;-65
2021/12/27 10:19:50;;;;;;;2.43;2.10;;;;;;;6.89;96.33;94215.47;4406268;32;20295;-65
2021/12/27 10:22:16;;;;;;;3.90;2.20;;;;;;;7.02;96.10;94218.38;4402703;32;20333;-65
2021/12/27 10:24:42;;;;;;;2.27;2.00;;;;;;;7.06;96.11;94220.12;4406138;32;20280;-65
2021/12/27 10:27:07;;;;;;;2.17;2.07;;;;;;;7.12;95.93;94220.78;4404671;32;20188;-65
2021/12/27 10:29:38;;;;;;;1.80;1.70;;;;;;;7.09;96.24;94226.66;4408356;32;20248;-64
2021/12/27 10:32:11;;;;;;;2.07;1.97;;;;;;;7.18;96.27;94212.47;4407465;32;20203;-65
2021/12/27 10:34:48;;;;;;;1.83;1.73;;;;;;;7.24;96.06;94215.78;4418966;32;20302;-64
2021/12/27 10:37:20;;;;;;;2.20;2.00;;;;;;;7.31;96.14;94210.84;4419773;32;20328;-65
2021/12/27 10:40:01;;;;;;;1.80;1.70;;;;;;;7.40;96.06;94211.69;4414310;32;20367;-65
2021/12/27 10:42:31;;;;;;;2.17;2.07;;;;;;;7.47;95.94;94212.06;4404932;32;20322;-64
2021/12/27 10:44:59;;;;;;;2.80;1.97;;;;;;;7.57;95.92;94206.53;4408837;32;20444;-64
2021/12/27 10:47:37;;;;;;;2.13;2.03;;;;;;;7.69;95.55;94199.94;4405076;32;20272;-64
2021/12/27 10:50:09;;;;;;;1.87;1.77;;;;;;;7.79;95.23;94195.16;4413525;32;20323;-64
2021/12/27 10:52:50;;;;;;;1.93;1.83;;;;;;;7.80;95.16;94202.00;4409660;32;20283;-64
2021/12/27 10:55:19;;;;;;;2.50;2.30;;;;;;;7.85;95.30;94199.22;4401555;32;20297;-64
2021/12/27 10:57:44;;;;;;;1.83;1.73;;;;;;;7.83;95.64;94198.75;4419423;32;20270;-65
2021/12/27 11:00:26;;;;;;;2.07;1.97;;;;;;;7.89;95.68;94188.84;4406494;32;20324;-65
2021/12/27 11:02:52;;;;;;;2.20;2.10;;;;;;;7.90;95.83;94185.09;4418534;32;20259;-65
2021/12/27 11:05:24;;;;;;;1.87;1.77;;;;;;;7.91;95.58;94184.78;4412271;32;20279;-65
2021/12/27 11:07:52;;;;;;;1.90;1.80;;;;;;;7.93;95.62;94185.28;4406140;32;20210;-65
2021/12/27 11:10:17;;;;;;;2.70;2.10;;;;;;;8.02;94.88;94172.13;4414284;32;20279;-65
2021/12/27 11:12:43;;;;;;;2.00;1.90;;;;;;;8.02;94.58;94171.34;4406207;32;20278;-65
2021/12/27 11:15:10;;;;;;;2.30;2.20;;;;;;;8.11;93.90;94170.28;4417673;32;20199;-65
2021/12/27 11:17:37;;;;;;;2.77;2.57;;;;;;;8.08;93.69;94165.63;4421185;32;20255;-65
2021/12/27 11:20:05;;;;;;;2.83;2.70;;;;;;;8.10;93.62;94158.19;4406186;32;20263;-65
2021/12/27 11:22:30;;;;;;;2.63;2.50;;;;;;;8.10;93.68;94160.03;4405851;32;20278;-65
2021/12/27 11:24:56;;;;;;;3.13;2.57;;;;;;;8.10;93.62;94152.12;4413096;32;20327;-65
2021/12/27 11:27:21;;;;;;;3.03;2.83;;;;;;;8.15;93.42;94136.88;4418913;32;20198;-65
2021/12/27 11:30:09;;;;;;;2.70;2.50;;;;;;;8.23;92.76;94136.12;4411685;32;20247;-65
2021/12/27 11:32:36;;;;;;;3.50;3.30;;;;;;;8.27;92.61;94131.81;4416601;32;20212;-65
2021/12/27 11:35:09;;;;;;;3.30;3.03;;;;;;;8.31;92.10;94125.91;4419624;32;20282;-65
2021/12/27 11:37:42;;;;;;;2.80;2.60;;;;;;;8.35;91.42;94121.56;4422302;32;20271;-65
2021/12/27 11:40:14;;;;;;;2.63;2.50;;;;;;;8.38;90.25;94110.38;4420237;32;20284;-65
2021/12/27 11:42:58;;;;;;;2.60;2.50;;;;;;;8.31;89.25;94110.06;4418376;32;20291;-65
2021/12/27 11:45:35;;;;;;;3.67;2.70;;;;;;;8.27;89.92;94108.03;4421869;32;20283;-65